Seabrook, New Jersey
Current Conditions -  °F | °C
As of 10:54 PM on Wednesday 17 Dec 2014 (Local Time) from KMIV Reporting Station
Clear Clear  
Wind Chill: 30°   Ceiling: Unl
Heat Index: 38°   Visibility: 10mi
Dew Point: 25°   Wind: 14mph
Humidity: 60%   Direction: 310°NW
Pressure: 29.98"   Gusts: NA
Location:  39.4433°N, 75.2554°W
Report Text: KMIV 180354Z AUTO 31012KT 10SM CLR 03/M04 A2998 RMK AO2 SLP153 T00331039
Loading
Personal Weather Stations






























Interactive Weather Map New forecast layout! Learn more

10-Day Weather Forecast

Advertisements
Track Severe Weather on mobile